JBU1796 MMUN-KFLL
Flight info
| Callsign | JBU1796 |
|---|---|
| Flight time | 1h 32m |
| Altitude | 35000 |
| Route | NUDAL1A NUDAL UV106 PODON UG765 MAXIM BHHIA3 |
| Aircraft | A320/M-SDE3FGHIRWY/LB1 |
Departure
| Time | 2026-05-03 21:45 |
|---|---|
| Airport | Cancún International Airport (MMUN) |
Arrival
| Time | 2026-05-03 23:17 |
|---|---|
| Airport | Fort Lauderdale Hollywood International Airport (KFLL) |
| Time | Latitude | Longitude | Altitude | Speed | Heading |
|---|---|---|---|---|---|
| 2026-05-03 21:15 | 21.04670 | -86.88364 | 24 ft | 0 kts | 122° |
| 2026-05-03 21:34 | 21.04672 | -86.88367 | 33 ft | 2 kts | 122° |
| 2026-05-03 21:34 | 21.04681 | -86.88382 | 25 ft | 2 kts | 120° |
| 2026-05-03 21:34 | 21.04690 | -86.88396 | 24 ft | 2 kts | 122° |
| 2026-05-03 21:34 | 21.04696 | -86.88406 | 24 ft | 2 kts | 123° |
| 2026-05-03 21:35 | 21.04705 | -86.88421 | 25 ft | 2 kts | 145° |
| 2026-05-03 21:35 | 21.04719 | -86.88430 | 25 ft | 2 kts | 172° |
| 2026-05-03 21:35 | 21.04735 | -86.88430 | 27 ft | 2 kts | 201° |
| 2026-05-03 21:35 | 21.04754 | -86.88420 | 27 ft | 2 kts | 211° |
| 2026-05-03 21:36 | 21.04764 | -86.88413 | 24 ft | 1 kts | 211° |
| 2026-05-03 21:36 | 21.04764 | -86.88412 | 24 ft | 0 kts | 211° |
| 2026-05-03 21:39 | 21.04763 | -86.88413 | 24 ft | 1 kts | 211° |
| 2026-05-03 21:39 | 21.04748 | -86.88423 | 25 ft | 4 kts | 210° |
| 2026-05-03 21:39 | 21.04718 | -86.88443 | 24 ft | 7 kts | 212° |
| 2026-05-03 21:40 | 21.04671 | -86.88478 | 24 ft | 10 kts | 215° |
| 2026-05-03 21:40 | 21.04608 | -86.88523 | 24 ft | 12 kts | 212° |
| 2026-05-03 21:40 | 21.04538 | -86.88571 | 24 ft | 12 kts | 213° |
| 2026-05-03 21:40 | 21.04471 | -86.88619 | 24 ft | 9 kts | 215° |
| 2026-05-03 21:41 | 21.04458 | -86.88666 | 25 ft | 6 kts | 292° |
| 2026-05-03 21:41 | 21.04477 | -86.88698 | 25 ft | 5 kts | 302° |
| 2026-05-03 21:41 | 21.04502 | -86.88740 | 25 ft | 8 kts | 302° |
| 2026-05-03 21:41 | 21.04541 | -86.88802 | 25 ft | 12 kts | 304° |
| 2026-05-03 21:42 | 21.04595 | -86.88889 | 25 ft | 16 kts | 304° |
| 2026-05-03 21:42 | 21.04642 | -86.88977 | 26 ft | 8 kts | 282° |
| 2026-05-03 21:42 | 21.04618 | -86.89020 | 25 ft | 6 kts | 215° |
| 2026-05-03 21:42 | 21.04613 | -86.89023 | 24 ft | 0 kts | 215° |
| 2026-05-03 21:43 | 21.04604 | -86.89030 | 24 ft | 4 kts | 215° |
| 2026-05-03 21:43 | 21.04563 | -86.89061 | 25 ft | 10 kts | 214° |
| 2026-05-03 21:44 | 21.04502 | -86.89048 | 23 ft | 10 kts | 126° |
| 2026-05-03 21:44 | 21.04468 | -86.88994 | 23 ft | 9 kts | 123° |
| 2026-05-03 21:44 | 21.04320 | -86.88756 | 25 ft | 79 kts | 124° |
| 2026-05-03 21:44 | 21.03874 | -86.88042 | 21 ft | 148 kts | 123° |
| 2026-05-03 21:45 | 21.03201 | -86.86992 | 321 ft | 178 kts | 124° |
| 2026-05-03 21:45 | 21.02519 | -86.85912 | 1284 ft | 175 kts | 124° |
| 2026-05-03 21:45 | 21.01848 | -86.84822 | 2251 ft | 175 kts | 123° |
| 2026-05-03 21:45 | 21.01156 | -86.83685 | 2656 ft | 192 kts | 123° |
| 2026-05-03 21:46 | 21.00451 | -86.82365 | 2849 ft | 216 kts | 117° |
| 2026-05-03 21:46 | 20.99733 | -86.80874 | 3126 ft | 240 kts | 117° |
| 2026-05-03 21:46 | 20.98933 | -86.79212 | 3469 ft | 261 kts | 117° |
| 2026-05-03 21:46 | 20.98086 | -86.77454 | 4165 ft | 269 kts | 117° |
| 2026-05-03 21:47 | 20.97225 | -86.75663 | 4949 ft | 273 kts | 117° |
| 2026-05-03 21:47 | 20.96369 | -86.73821 | 5682 ft | 279 kts | 111° |
| 2026-05-03 21:47 | 20.96039 | -86.71765 | 6390 ft | 286 kts | 86° |
| 2026-05-03 21:47 | 20.96377 | -86.69661 | 7098 ft | 289 kts | 77° |
| 2026-05-03 21:48 | 20.96784 | -86.67544 | 7862 ft | 292 kts | 77° |
| 2026-05-03 21:48 | 20.97192 | -86.65410 | 8606 ft | 295 kts | 77° |
| 2026-05-03 21:48 | 20.97595 | -86.63278 | 9316 ft | 298 kts | 77° |
| 2026-05-03 21:48 | 20.98006 | -86.61091 | 10012 ft | 301 kts | 77° |
| 2026-05-03 21:49 | 20.98527 | -86.58875 | 10354 ft | 317 kts | 69° |
| 2026-05-03 21:49 | 20.99327 | -86.56589 | 10511 ft | 337 kts | 68° |
| 2026-05-03 21:49 | 21.00164 | -86.54211 | 10958 ft | 345 kts | 68° |
| 2026-05-03 21:49 | 21.01012 | -86.51791 | 11508 ft | 350 kts | 68° |
| 2026-05-03 21:50 | 21.01871 | -86.49336 | 12089 ft | 353 kts | 68° |
| 2026-05-03 21:50 | 21.02734 | -86.46861 | 12662 ft | 357 kts | 69° |
| 2026-05-03 21:50 | 21.03602 | -86.44356 | 13230 ft | 361 kts | 69° |
| 2026-05-03 21:50 | 21.04479 | -86.41823 | 13782 ft | 365 kts | 69° |
| 2026-05-03 21:51 | 21.05352 | -86.39298 | 14263 ft | 368 kts | 69° |
| 2026-05-03 21:51 | 21.06248 | -86.36711 | 14749 ft | 372 kts | 69° |
| 2026-05-03 21:51 | 21.07153 | -86.34105 | 15226 ft | 376 kts | 69° |
| 2026-05-03 21:51 | 21.08067 | -86.31469 | 15717 ft | 379 kts | 69° |
| 2026-05-03 21:52 | 21.08986 | -86.28817 | 16185 ft | 383 kts | 69° |
| 2026-05-03 21:52 | 21.09918 | -86.26124 | 16677 ft | 386 kts | 69° |
| 2026-05-03 21:52 | 21.10855 | -86.23421 | 17099 ft | 391 kts | 69° |
| 2026-05-03 21:52 | 21.11808 | -86.20666 | 17547 ft | 396 kts | 69° |
| 2026-05-03 21:53 | 21.12753 | -86.17928 | 18000 ft | 399 kts | 69° |
| 2026-05-03 21:53 | 21.13721 | -86.15126 | 18435 ft | 403 kts | 69° |
| 2026-05-03 21:53 | 21.14695 | -86.12303 | 18842 ft | 406 kts | 68° |
| 2026-05-03 21:53 | 21.15679 | -86.09451 | 19278 ft | 409 kts | 68° |
| 2026-05-03 21:54 | 21.16668 | -86.06583 | 19727 ft | 412 kts | 68° |
| 2026-05-03 21:54 | 21.17655 | -86.03710 | 19926 ft | 413 kts | 68° |
| 2026-05-03 21:54 | 21.18648 | -86.00818 | 19982 ft | 413 kts | 68° |
| 2026-05-03 21:54 | 21.19542 | -85.97880 | 19985 ft | 414 kts | 76° |
| 2026-05-03 21:55 | 21.20115 | -85.94891 | 19986 ft | 414 kts | 78° |
| 2026-05-03 21:55 | 21.20684 | -85.91866 | 19986 ft | 415 kts | 78° |
| 2026-05-03 21:55 | 21.21257 | -85.88838 | 20059 ft | 417 kts | 77° |
| 2026-05-03 21:55 | 21.21838 | -85.85790 | 20537 ft | 419 kts | 77° |
| 2026-05-03 21:56 | 21.22425 | -85.82719 | 20999 ft | 421 kts | 77° |
| 2026-05-03 21:56 | 21.23012 | -85.79641 | 21449 ft | 424 kts | 77° |
| 2026-05-03 21:56 | 21.23603 | -85.76533 | 21897 ft | 427 kts | 77° |
| 2026-05-03 21:56 | 21.24195 | -85.73407 | 22345 ft | 429 kts | 77° |
| 2026-05-03 21:57 | 21.24786 | -85.70273 | 22800 ft | 432 kts | 77° |
| 2026-05-03 21:57 | 21.25406 | -85.67101 | 23239 ft | 435 kts | 74° |
| 2026-05-03 21:57 | 21.26383 | -85.64077 | 23641 ft | 435 kts | 63° |
| 2026-05-03 21:57 | 21.27856 | -85.61248 | 23979 ft | 435 kts | 53° |
| 2026-05-03 21:58 | 21.29774 | -85.58738 | 24308 ft | 435 kts | 42° |
| 2026-05-03 21:58 | 21.31998 | -85.56543 | 24640 ft | 436 kts | 39° |
| 2026-05-03 21:58 | 21.34263 | -85.54354 | 24966 ft | 439 kts | 39° |
| 2026-05-03 21:58 | 21.36528 | -85.52150 | 25281 ft | 442 kts | 39° |
| 2026-05-03 21:59 | 21.38808 | -85.49924 | 25609 ft | 445 kts | 39° |
| 2026-05-03 21:59 | 21.41109 | -85.47673 | 25923 ft | 448 kts | 39° |
| 2026-05-03 21:59 | 21.43412 | -85.45418 | 26236 ft | 450 kts | 39° |
| 2026-05-03 21:59 | 21.45733 | -85.43145 | 26540 ft | 453 kts | 39° |
| 2026-05-03 22:00 | 21.48075 | -85.40856 | 26793 ft | 457 kts | 39° |
| 2026-05-03 22:00 | 21.50435 | -85.38550 | 27065 ft | 461 kts | 39° |
| 2026-05-03 22:00 | 21.52777 | -85.36257 | 27334 ft | 464 kts | 39° |
| 2026-05-03 22:00 | 21.55168 | -85.33917 | 27605 ft | 466 kts | 39° |
| 2026-05-03 22:01 | 21.57572 | -85.31562 | 27879 ft | 469 kts | 39° |
| 2026-05-03 22:01 | 21.59998 | -85.29191 | 28155 ft | 472 kts | 39° |
| 2026-05-03 22:01 | 21.62425 | -85.26815 | 28434 ft | 474 kts | 40° |
| 2026-05-03 22:01 | 21.64876 | -85.24414 | 28713 ft | 477 kts | 40° |
| 2026-05-03 22:02 | 21.67332 | -85.22003 | 28991 ft | 480 kts | 40° |
| 2026-05-03 22:02 | 21.69801 | -85.19571 | 29267 ft | 483 kts | 40° |
| 2026-05-03 22:02 | 21.72251 | -85.17161 | 29551 ft | 486 kts | 40° |
| 2026-05-03 22:02 | 21.74743 | -85.14711 | 29934 ft | 485 kts | 39° |
| 2026-05-03 22:03 | 21.77245 | -85.12254 | 30241 ft | 487 kts | 39° |
| 2026-05-03 22:03 | 21.79742 | -85.09797 | 30496 ft | 488 kts | 39° |
| 2026-05-03 22:03 | 21.82252 | -85.07323 | 30818 ft | 488 kts | 39° |
| 2026-05-03 22:03 | 21.84751 | -85.04862 | 31188 ft | 487 kts | 39° |
| 2026-05-03 22:04 | 21.87252 | -85.02405 | 31545 ft | 486 kts | 39° |
| 2026-05-03 22:04 | 21.89748 | -84.99949 | 31896 ft | 486 kts | 39° |
| 2026-05-03 22:04 | 21.92243 | -84.97495 | 32258 ft | 485 kts | 39° |
| 2026-05-03 22:04 | 21.94735 | -84.95044 | 32632 ft | 484 kts | 39° |
| 2026-05-03 22:05 | 21.97186 | -84.92630 | 32997 ft | 483 kts | 39° |
| 2026-05-03 22:05 | 21.99658 | -84.90192 | 33367 ft | 482 kts | 39° |
| 2026-05-03 22:05 | 22.02130 | -84.87750 | 33749 ft | 482 kts | 39° |
| 2026-05-03 22:05 | 22.04597 | -84.85309 | 34100 ft | 481 kts | 39° |
| 2026-05-03 22:06 | 22.07058 | -84.82872 | 34302 ft | 484 kts | 38° |
| 2026-05-03 22:06 | 22.09556 | -84.80398 | 34436 ft | 488 kts | 38° |
| 2026-05-03 22:06 | 22.12056 | -84.77926 | 34645 ft | 490 kts | 38° |
| 2026-05-03 22:06 | 22.14572 | -84.75440 | 34900 ft | 490 kts | 38° |
| 2026-05-03 22:07 | 22.19592 | -84.70469 | 35002 ft | 489 kts | 38° |
| 2026-05-03 22:07 | 22.24554 | -84.65535 | 35008 ft | 487 kts | 38° |
| 2026-05-03 22:08 | 22.29520 | -84.60602 | 35009 ft | 484 kts | 38° |
| 2026-05-03 22:08 | 22.34474 | -84.55680 | 35011 ft | 484 kts | 38° |
| 2026-05-03 22:09 | 22.39430 | -84.50747 | 35023 ft | 485 kts | 38° |
| 2026-05-03 22:10 | 22.46872 | -84.43344 | 34989 ft | 489 kts | 38° |
| 2026-05-03 22:10 | 22.51875 | -84.38341 | 34991 ft | 490 kts | 38° |
| 2026-05-03 22:11 | 22.56881 | -84.33336 | 34997 ft | 490 kts | 38° |
| 2026-05-03 22:11 | 22.61891 | -84.28331 | 34994 ft | 491 kts | 38° |
| 2026-05-03 22:12 | 22.66684 | -84.23122 | 35016 ft | 495 kts | 46° |
| 2026-05-03 22:12 | 22.71100 | -84.17404 | 35039 ft | 496 kts | 46° |
| 2026-05-03 22:13 | 22.75526 | -84.11671 | 35010 ft | 496 kts | 46° |
| 2026-05-03 22:13 | 22.80016 | -84.05986 | 35007 ft | 496 kts | 45° |
| 2026-05-03 22:14 | 22.84500 | -84.00355 | 35012 ft | 497 kts | 45° |
| 2026-05-03 22:14 | 22.89006 | -83.94675 | 35012 ft | 497 kts | 45° |
| 2026-05-03 22:15 | 22.93468 | -83.89001 | 35034 ft | 497 kts | 46° |
| 2026-05-03 22:15 | 22.97949 | -83.83289 | 35039 ft | 497 kts | 46° |
| 2026-05-03 22:16 | 23.02395 | -83.77642 | 35022 ft | 497 kts | 45° |
| 2026-05-03 22:16 | 23.06898 | -83.71932 | 35013 ft | 498 kts | 46° |
| 2026-05-03 22:17 | 23.11327 | -83.66283 | 35009 ft | 498 kts | 46° |
| 2026-05-03 22:17 | 23.15822 | -83.60541 | 35009 ft | 499 kts | 46° |
| 2026-05-03 22:18 | 23.20322 | -83.54800 | 35013 ft | 499 kts | 46° |
| 2026-05-03 22:18 | 23.24819 | -83.49046 | 35037 ft | 499 kts | 46° |
| 2026-05-03 22:19 | 23.29298 | -83.43308 | 35051 ft | 497 kts | 46° |
| 2026-05-03 22:19 | 23.33779 | -83.37562 | 35024 ft | 498 kts | 46° |
| 2026-05-03 22:20 | 23.38259 | -83.31811 | 35017 ft | 499 kts | 46° |
| 2026-05-03 22:20 | 23.42718 | -83.26091 | 35016 ft | 499 kts | 46° |
| 2026-05-03 22:21 | 23.47215 | -83.20310 | 35020 ft | 500 kts | 46° |
| 2026-05-03 22:21 | 23.51710 | -83.14524 | 35023 ft | 500 kts | 46° |
| 2026-05-03 22:22 | 23.56194 | -83.08741 | 35037 ft | 498 kts | 46° |
| 2026-05-03 22:22 | 23.60631 | -83.03014 | 35053 ft | 498 kts | 46° |
| 2026-05-03 22:23 | 23.65106 | -82.97229 | 35010 ft | 500 kts | 46° |
| 2026-05-03 22:23 | 23.69595 | -82.91426 | 35000 ft | 501 kts | 46° |
| 2026-05-03 22:24 | 23.74087 | -82.85601 | 34995 ft | 502 kts | 46° |
| 2026-05-03 22:24 | 23.78578 | -82.79769 | 34997 ft | 502 kts | 46° |
| 2026-05-03 22:25 | 23.83078 | -82.73933 | 35007 ft | 502 kts | 47° |
| 2026-05-03 22:25 | 23.87544 | -82.68137 | 35021 ft | 501 kts | 47° |
| 2026-05-03 22:26 | 23.92021 | -82.62307 | 35029 ft | 502 kts | 47° |
| 2026-05-03 22:26 | 23.96506 | -82.56455 | 35009 ft | 503 kts | 47° |
| 2026-05-03 22:27 | 24.01010 | -82.50600 | 35007 ft | 503 kts | 45° |
| 2026-05-03 22:27 | 24.05752 | -82.44979 | 35008 ft | 502 kts | 42° |
| 2026-05-03 22:28 | 24.10644 | -82.39529 | 35002 ft | 502 kts | 42° |
| 2026-05-03 22:28 | 24.15472 | -82.34066 | 35016 ft | 502 kts | 43° |
| 2026-05-03 22:29 | 24.20258 | -82.28509 | 35042 ft | 502 kts | 44° |
| 2026-05-03 22:29 | 24.25038 | -82.22930 | 35027 ft | 502 kts | 43° |
| 2026-05-03 22:30 | 24.29828 | -82.17354 | 35022 ft | 503 kts | 43° |
| 2026-05-03 22:30 | 24.34583 | -82.11818 | 34711 ft | 500 kts | 43° |
| 2026-05-03 22:30 | 24.36968 | -82.09043 | 34149 ft | 501 kts | 43° |
| 2026-05-03 22:31 | 24.39360 | -82.06263 | 33552 ft | 500 kts | 43° |
| 2026-05-03 22:31 | 24.41743 | -82.03494 | 33007 ft | 499 kts | 43° |
| 2026-05-03 22:31 | 24.44119 | -82.00732 | 32459 ft | 497 kts | 43° |
| 2026-05-03 22:31 | 24.46489 | -81.97968 | 31910 ft | 495 kts | 43° |
| 2026-05-03 22:32 | 24.48953 | -81.95370 | 31470 ft | 487 kts | 34° |
| 2026-05-03 22:32 | 24.51606 | -81.93100 | 31012 ft | 482 kts | 33° |
| 2026-05-03 22:32 | 24.54251 | -81.90860 | 30566 ft | 479 kts | 32° |
| 2026-05-03 22:32 | 24.56875 | -81.88639 | 30129 ft | 476 kts | 32° |
| 2026-05-03 22:33 | 24.59485 | -81.86425 | 29658 ft | 472 kts | 32° |
| 2026-05-03 22:33 | 24.62036 | -81.84254 | 29263 ft | 467 kts | 33° |
| 2026-05-03 22:33 | 24.64598 | -81.82070 | 28852 ft | 471 kts | 33° |
| 2026-05-03 22:33 | 24.67221 | -81.79840 | 28435 ft | 480 kts | 33° |
| 2026-05-03 22:34 | 24.69862 | -81.77594 | 28020 ft | 480 kts | 33° |
| 2026-05-03 22:34 | 24.72492 | -81.75345 | 27580 ft | 477 kts | 33° |
| 2026-05-03 22:34 | 24.75102 | -81.73097 | 27154 ft | 475 kts | 34° |
| 2026-05-03 22:34 | 24.77690 | -81.70859 | 26720 ft | 471 kts | 34° |
| 2026-05-03 22:35 | 24.80258 | -81.68635 | 26266 ft | 469 kts | 34° |
| 2026-05-03 22:35 | 24.82821 | -81.66416 | 25815 ft | 467 kts | 34° |
| 2026-05-03 22:35 | 24.85362 | -81.64218 | 25345 ft | 464 kts | 34° |
| 2026-05-03 22:35 | 24.87861 | -81.62056 | 24906 ft | 461 kts | 34° |
| 2026-05-03 22:36 | 24.90374 | -81.59881 | 24430 ft | 460 kts | 34° |
| 2026-05-03 22:36 | 24.92889 | -81.57705 | 23953 ft | 458 kts | 34° |
| 2026-05-03 22:36 | 24.95390 | -81.55540 | 23522 ft | 455 kts | 34° |
| 2026-05-03 22:36 | 24.97857 | -81.53402 | 23231 ft | 448 kts | 34° |
| 2026-05-03 22:37 | 25.00283 | -81.51297 | 22723 ft | 441 kts | 34° |
| 2026-05-03 22:37 | 25.02678 | -81.49218 | 22040 ft | 435 kts | 34° |
| 2026-05-03 22:37 | 25.05049 | -81.47162 | 21575 ft | 433 kts | 34° |
| 2026-05-03 22:37 | 25.07416 | -81.45108 | 21116 ft | 430 kts | 34° |
| 2026-05-03 22:38 | 25.09726 | -81.43100 | 20666 ft | 426 kts | 34° |
| 2026-05-03 22:38 | 25.12074 | -81.41059 | 20215 ft | 422 kts | 34° |
| 2026-05-03 22:38 | 25.14341 | -81.39092 | 19771 ft | 419 kts | 34° |
| 2026-05-03 22:38 | 25.16620 | -81.37112 | 19324 ft | 415 kts | 35° |
| 2026-05-03 22:39 | 25.18883 | -81.35143 | 18881 ft | 412 kts | 35° |
| 2026-05-03 22:39 | 25.21124 | -81.33192 | 18441 ft | 410 kts | 35° |
| 2026-05-03 22:39 | 25.23356 | -81.31242 | 17954 ft | 407 kts | 36° |
| 2026-05-03 22:39 | 25.25540 | -81.29282 | 17516 ft | 403 kts | 37° |
| 2026-05-03 22:40 | 25.27687 | -81.27310 | 17073 ft | 399 kts | 37° |
| 2026-05-03 22:40 | 25.29800 | -81.25351 | 16635 ft | 396 kts | 37° |
| 2026-05-03 22:40 | 25.31899 | -81.23404 | 16207 ft | 392 kts | 37° |
| 2026-05-03 22:40 | 25.33982 | -81.21480 | 15784 ft | 389 kts | 37° |
| 2026-05-03 22:41 | 25.36026 | -81.19601 | 15371 ft | 385 kts | 37° |
| 2026-05-03 22:41 | 25.38082 | -81.17718 | 14969 ft | 382 kts | 37° |
| 2026-05-03 22:41 | 25.40127 | -81.15849 | 14545 ft | 380 kts | 37° |
| 2026-05-03 22:41 | 25.42157 | -81.13993 | 14131 ft | 378 kts | 37° |
| 2026-05-03 22:42 | 25.44171 | -81.12149 | 13695 ft | 375 kts | 37° |
| 2026-05-03 22:42 | 25.46171 | -81.10314 | 13273 ft | 371 kts | 37° |
| 2026-05-03 22:42 | 25.48152 | -81.08493 | 12863 ft | 368 kts | 37° |
| 2026-05-03 22:42 | 25.50106 | -81.06696 | 12590 ft | 361 kts | 37° |
| 2026-05-03 22:43 | 25.52003 | -81.04948 | 12463 ft | 349 kts | 37° |
| 2026-05-03 22:43 | 25.53803 | -81.03290 | 12192 ft | 335 kts | 37° |
| 2026-05-03 22:43 | 25.55583 | -81.01650 | 11631 ft | 330 kts | 37° |
| 2026-05-03 22:43 | 25.57333 | -81.00042 | 11054 ft | 325 kts | 37° |
| 2026-05-03 22:44 | 25.59055 | -80.98458 | 10584 ft | 318 kts | 37° |
| 2026-05-03 22:44 | 25.60768 | -80.96980 | 10229 ft | 307 kts | 28° |
| 2026-05-03 22:44 | 25.62670 | -80.95958 | 9880 ft | 303 kts | 14° |
| 2026-05-03 22:44 | 25.64708 | -80.95466 | 9507 ft | 297 kts | 0° |
| 2026-05-03 22:45 | 25.66734 | -80.95304 | 9173 ft | 295 kts | 360° |
| 2026-05-03 22:45 | 25.68788 | -80.95134 | 8828 ft | 295 kts | 360° |
| 2026-05-03 22:45 | 25.70804 | -80.94963 | 8480 ft | 294 kts | 360° |
| 2026-05-03 22:45 | 25.72840 | -80.94791 | 8137 ft | 293 kts | 0° |
| 2026-05-03 22:46 | 25.74874 | -80.94621 | 7798 ft | 293 kts | 0° |
| 2026-05-03 22:46 | 25.76908 | -80.94452 | 7442 ft | 293 kts | 0° |
| 2026-05-03 22:46 | 25.78937 | -80.94286 | 7132 ft | 291 kts | 0° |
| 2026-05-03 22:46 | 25.80929 | -80.94119 | 6999 ft | 282 kts | 0° |
| 2026-05-03 22:47 | 25.82835 | -80.93955 | 7006 ft | 268 kts | 0° |
| 2026-05-03 22:47 | 25.84646 | -80.93799 | 7009 ft | 253 kts | 360° |
| 2026-05-03 22:47 | 25.86365 | -80.93639 | 7012 ft | 247 kts | 3° |
| 2026-05-03 22:47 | 25.88044 | -80.93179 | 7015 ft | 251 kts | 17° |
| 2026-05-03 22:48 | 25.89600 | -80.92333 | 7015 ft | 253 kts | 25° |
| 2026-05-03 22:48 | 25.91130 | -80.91389 | 7015 ft | 253 kts | 25° |
| 2026-05-03 22:48 | 25.92636 | -80.90461 | 7015 ft | 252 kts | 26° |
| 2026-05-03 22:48 | 25.94169 | -80.89518 | 7015 ft | 252 kts | 25° |
| 2026-05-03 22:49 | 25.95703 | -80.88576 | 7013 ft | 252 kts | 25° |
| 2026-05-03 22:49 | 25.97233 | -80.87638 | 7035 ft | 252 kts | 25° |
| 2026-05-03 22:49 | 25.98757 | -80.86678 | 7025 ft | 252 kts | 31° |
| 2026-05-03 22:49 | 26.00096 | -80.85408 | 7023 ft | 255 kts | 46° |
| 2026-05-03 22:50 | 26.01122 | -80.83786 | 6975 ft | 259 kts | 62° |
| 2026-05-03 22:50 | 26.01753 | -80.81925 | 6856 ft | 257 kts | 77° |
| 2026-05-03 22:50 | 26.02069 | -80.79976 | 6740 ft | 257 kts | 80° |
| 2026-05-03 22:50 | 26.02379 | -80.78012 | 6628 ft | 257 kts | 80° |
| 2026-05-03 22:51 | 26.02690 | -80.76056 | 6517 ft | 256 kts | 80° |
| 2026-05-03 22:51 | 26.02997 | -80.74133 | 6403 ft | 256 kts | 80° |
| 2026-05-03 22:51 | 26.03297 | -80.72196 | 6283 ft | 254 kts | 84° |
| 2026-05-03 22:51 | 26.03115 | -80.70274 | 6152 ft | 250 kts | 116° |
| 2026-05-03 22:52 | 26.02118 | -80.68765 | 6030 ft | 241 kts | 148° |
| 2026-05-03 22:52 | 26.00627 | -80.68009 | 5912 ft | 234 kts | 169° |
| 2026-05-03 22:52 | 25.99052 | -80.67591 | 5789 ft | 233 kts | 172° |
| 2026-05-03 22:52 | 25.97459 | -80.67223 | 5666 ft | 234 kts | 173° |
| 2026-05-03 22:53 | 25.95864 | -80.66863 | 5544 ft | 234 kts | 173° |
| 2026-05-03 22:53 | 25.94277 | -80.66512 | 5405 ft | 232 kts | 173° |
| 2026-05-03 22:53 | 25.92717 | -80.66171 | 5281 ft | 230 kts | 173° |
| 2026-05-03 22:53 | 25.91147 | -80.65832 | 5166 ft | 231 kts | 173° |
| 2026-05-03 22:54 | 25.89564 | -80.65651 | 5075 ft | 224 kts | 193° |
| 2026-05-03 22:54 | 25.88194 | -80.66330 | 5017 ft | 216 kts | 226° |
| 2026-05-03 22:54 | 25.87445 | -80.67741 | 5017 ft | 214 kts | 260° |
| 2026-05-03 22:54 | 25.87360 | -80.69392 | 5019 ft | 216 kts | 271° |
| 2026-05-03 22:55 | 25.87431 | -80.71055 | 5017 ft | 216 kts | 272° |
| 2026-05-03 22:55 | 25.87528 | -80.72726 | 5018 ft | 217 kts | 273° |
| 2026-05-03 22:55 | 25.87632 | -80.74399 | 5016 ft | 218 kts | 273° |
| 2026-05-03 22:55 | 25.87738 | -80.76054 | 5016 ft | 217 kts | 273° |
| 2026-05-03 22:56 | 25.87852 | -80.77722 | 5018 ft | 217 kts | 273° |
| 2026-05-03 22:56 | 25.87964 | -80.79392 | 5016 ft | 217 kts | 273° |
| 2026-05-03 22:56 | 25.88071 | -80.81069 | 5016 ft | 217 kts | 273° |
| 2026-05-03 22:56 | 25.88181 | -80.82740 | 5014 ft | 217 kts | 273° |
| 2026-05-03 22:57 | 25.88297 | -80.84413 | 5014 ft | 217 kts | 273° |
| 2026-05-03 22:57 | 25.88408 | -80.86081 | 5014 ft | 217 kts | 273° |
| 2026-05-03 22:57 | 25.88520 | -80.87744 | 5014 ft | 215 kts | 273° |
| 2026-05-03 22:57 | 25.88645 | -80.89341 | 5012 ft | 200 kts | 278° |
| 2026-05-03 22:58 | 25.89223 | -80.90655 | 4996 ft | 187 kts | 315° |
| 2026-05-03 22:58 | 25.90387 | -80.91229 | 5014 ft | 189 kts | 350° |
| 2026-05-03 22:58 | 25.91707 | -80.90991 | 5029 ft | 197 kts | 17° |
| 2026-05-03 22:58 | 25.92934 | -80.90299 | 5016 ft | 199 kts | 27° |
| 2026-05-03 22:59 | 25.94115 | -80.89533 | 5020 ft | 199 kts | 30° |
| 2026-05-03 22:59 | 25.95074 | -80.88440 | 5007 ft | 202 kts | 64° |
| 2026-05-03 22:59 | 25.95317 | -80.86927 | 5013 ft | 200 kts | 103° |
| 2026-05-03 22:59 | 25.94738 | -80.85570 | 5018 ft | 195 kts | 140° |
| 2026-05-03 23:00 | 25.93607 | -80.84835 | 5019 ft | 187 kts | 174° |
| 2026-05-03 23:00 | 25.92354 | -80.84897 | 5020 ft | 178 kts | 205° |
| 2026-05-03 23:00 | 25.91244 | -80.85492 | 5022 ft | 178 kts | 211° |
| 2026-05-03 23:00 | 25.90150 | -80.86140 | 5021 ft | 178 kts | 211° |
| 2026-05-03 23:01 | 25.89065 | -80.86790 | 5017 ft | 178 kts | 212° |
| 2026-05-03 23:01 | 25.87975 | -80.87441 | 5017 ft | 178 kts | 212° |
| 2026-05-03 23:01 | 25.86922 | -80.88118 | 5010 ft | 177 kts | 222° |
| 2026-05-03 23:01 | 25.86153 | -80.89141 | 5018 ft | 172 kts | 248° |
| 2026-05-03 23:02 | 25.85942 | -80.90431 | 5015 ft | 174 kts | 275° |
| 2026-05-03 23:02 | 25.86363 | -80.91685 | 5017 ft | 177 kts | 304° |
| 2026-05-03 23:02 | 25.87335 | -80.92533 | 5011 ft | 184 kts | 335° |
| 2026-05-03 23:02 | 25.88623 | -80.92683 | 5012 ft | 194 kts | 8° |
| 2026-05-03 23:03 | 25.89874 | -80.92084 | 5027 ft | 198 kts | 24° |
| 2026-05-03 23:03 | 25.91091 | -80.91357 | 5018 ft | 199 kts | 24° |
| 2026-05-03 23:03 | 25.92307 | -80.90631 | 5012 ft | 199 kts | 25° |
| 2026-05-03 23:03 | 25.93531 | -80.89904 | 5019 ft | 199 kts | 25° |
| 2026-05-03 23:04 | 25.94674 | -80.89083 | 5000 ft | 200 kts | 47° |
| 2026-05-03 23:04 | 25.95311 | -80.87726 | 5014 ft | 202 kts | 84° |
| 2026-05-03 23:04 | 25.95128 | -80.86223 | 5014 ft | 198 kts | 122° |
| 2026-05-03 23:04 | 25.94223 | -80.85130 | 5018 ft | 191 kts | 157° |
| 2026-05-03 23:05 | 25.92988 | -80.84670 | 5027 ft | 189 kts | 166° |
| 2026-05-03 23:05 | 25.91937 | -80.83818 | 5012 ft | 196 kts | 120° |
| 2026-05-03 23:05 | 25.91716 | -80.82325 | 5024 ft | 202 kts | 79° |
| 2026-05-03 23:05 | 25.92237 | -80.80887 | 5023 ft | 202 kts | 57° |
| 2026-05-03 23:06 | 25.92941 | -80.79533 | 5014 ft | 203 kts | 59° |
| 2026-05-03 23:06 | 25.93615 | -80.78160 | 5015 ft | 203 kts | 60° |
| 2026-05-03 23:06 | 25.94281 | -80.76775 | 5014 ft | 203 kts | 61° |
| 2026-05-03 23:06 | 25.94935 | -80.75404 | 5016 ft | 203 kts | 61° |
| 2026-05-03 23:07 | 25.95594 | -80.74018 | 5020 ft | 203 kts | 60° |
| 2026-05-03 23:07 | 25.96253 | -80.72629 | 5032 ft | 202 kts | 61° |
| 2026-05-03 23:07 | 25.96906 | -80.71250 | 5031 ft | 202 kts | 60° |
| 2026-05-03 23:07 | 25.97562 | -80.69865 | 5026 ft | 202 kts | 60° |
| 2026-05-03 23:08 | 25.98217 | -80.68486 | 5028 ft | 202 kts | 60° |
| 2026-05-03 23:08 | 25.98872 | -80.67107 | 5028 ft | 202 kts | 60° |
| 2026-05-03 23:08 | 25.99523 | -80.65729 | 5026 ft | 202 kts | 60° |
| 2026-05-03 23:08 | 26.00173 | -80.64351 | 5025 ft | 201 kts | 60° |
| 2026-05-03 23:09 | 26.00825 | -80.62975 | 5024 ft | 201 kts | 60° |
| 2026-05-03 23:09 | 26.01470 | -80.61615 | 5021 ft | 201 kts | 60° |
| 2026-05-03 23:09 | 26.02122 | -80.60242 | 5029 ft | 201 kts | 60° |
| 2026-05-03 23:09 | 26.02775 | -80.58863 | 5026 ft | 201 kts | 60° |
| 2026-05-03 23:10 | 26.03426 | -80.57484 | 5025 ft | 201 kts | 60° |
| 2026-05-03 23:10 | 26.04077 | -80.56106 | 5025 ft | 201 kts | 60° |
| 2026-05-03 23:10 | 26.04735 | -80.54713 | 5034 ft | 209 kts | 60° |
| 2026-05-03 23:10 | 26.05418 | -80.53267 | 5015 ft | 211 kts | 61° |
| 2026-05-03 23:11 | 26.06089 | -80.51811 | 5018 ft | 213 kts | 66° |
| 2026-05-03 23:11 | 26.06551 | -80.50248 | 5019 ft | 213 kts | 79° |
| 2026-05-03 23:11 | 26.06711 | -80.48608 | 5024 ft | 215 kts | 89° |
| 2026-05-03 23:11 | 26.06733 | -80.46949 | 5022 ft | 215 kts | 91° |
| 2026-05-03 23:12 | 26.06726 | -80.45312 | 4946 ft | 213 kts | 90° |
| 2026-05-03 23:12 | 26.06720 | -80.43660 | 4734 ft | 217 kts | 91° |
| 2026-05-03 23:12 | 26.06712 | -80.41933 | 4443 ft | 227 kts | 91° |
| 2026-05-03 23:12 | 26.06705 | -80.40203 | 4143 ft | 229 kts | 91° |
| 2026-05-03 23:13 | 26.06699 | -80.38457 | 3852 ft | 223 kts | 91° |
| 2026-05-03 23:13 | 26.06692 | -80.36775 | 3572 ft | 215 kts | 90° |
| 2026-05-03 23:13 | 26.06685 | -80.35134 | 3301 ft | 207 kts | 90° |
| 2026-05-03 23:13 | 26.06678 | -80.33560 | 3033 ft | 201 kts | 90° |
| 2026-05-03 23:14 | 26.06671 | -80.32030 | 2791 ft | 199 kts | 90° |
| 2026-05-03 23:14 | 26.06664 | -80.30489 | 2546 ft | 197 kts | 90° |
| 2026-05-03 23:14 | 26.06657 | -80.29000 | 2263 ft | 195 kts | 89° |
| 2026-05-03 23:14 | 26.06650 | -80.27520 | 2016 ft | 191 kts | 89° |
| 2026-05-03 23:15 | 26.06643 | -80.26054 | 1767 ft | 189 kts | 89° |
| 2026-05-03 23:15 | 26.06635 | -80.24609 | 1520 ft | 182 kts | 89° |
| 2026-05-03 23:15 | 26.06628 | -80.23247 | 1282 ft | 169 kts | 89° |
| 2026-05-03 23:15 | 26.06621 | -80.22020 | 1089 ft | 152 kts | 87° |
| 2026-05-03 23:16 | 26.06615 | -80.20867 | 900 ft | 146 kts | 88° |
| 2026-05-03 23:16 | 26.06613 | -80.19753 | 741 ft | 143 kts | 88° |
| 2026-05-03 23:16 | 26.06604 | -80.18662 | 582 ft | 143 kts | 87° |
| 2026-05-03 23:16 | 26.06595 | -80.17558 | 421 ft | 143 kts | 85° |
| 2026-05-03 23:17 | 26.06597 | -80.16467 | 189 ft | 140 kts | 88° |
| 2026-05-03 23:17 | 26.06583 | -80.15400 | 29 ft | 133 kts | 88° |
| 2026-05-03 23:17 | 26.06578 | -80.14997 | 24 ft | 99 kts | 90° |
| 2026-05-03 23:17 | 26.06578 | -80.14614 | 20 ft | 32 kts | 89° |
| 2026-05-03 23:18 | 26.06582 | -80.14422 | 17 ft | 30 kts | 88° |
| 2026-05-03 23:18 | 26.06638 | -80.14228 | 20 ft | 20 kts | 31° |
| 2026-05-03 23:18 | 26.06683 | -80.14233 | 18 ft | 0 kts | 322° |
| 2026-05-03 23:18 | 26.06687 | -80.14237 | 19 ft | 1 kts | 312° |
| 2026-05-03 23:19 | 26.06689 | -80.14250 | 19 ft | 2 kts | 278° |
| 2026-05-03 23:19 | 26.06689 | -80.14269 | 19 ft | 0 kts | 272° |
| 2026-05-03 23:19 | 26.06690 | -80.14269 | 19 ft | 0 kts | 272° |
| 2026-05-03 23:19 | 26.06690 | -80.14270 | 19 ft | 1 kts | 272° |
| 2026-05-03 23:20 | 26.06690 | -80.14285 | 19 ft | 3 kts | 272° |
| 2026-05-03 23:20 | 26.06691 | -80.14321 | 19 ft | 6 kts | 272° |
| 2026-05-03 23:20 | 26.06691 | -80.14377 | 18 ft | 9 kts | 269° |
| 2026-05-03 23:20 | 26.06691 | -80.14465 | 17 ft | 13 kts | 270° |
| 2026-05-03 23:21 | 26.06692 | -80.14585 | 17 ft | 17 kts | 270° |
| 2026-05-03 23:21 | 26.06694 | -80.14720 | 19 ft | 16 kts | 271° |
| 2026-05-03 23:21 | 26.06694 | -80.14831 | 20 ft | 12 kts | 270° |
| 2026-05-03 23:21 | 26.06707 | -80.14906 | 23 ft | 9 kts | 309° |
| 2026-05-03 23:22 | 26.06769 | -80.14861 | 22 ft | 11 kts | 89° |
| 2026-05-03 23:22 | 26.06768 | -80.14738 | 19 ft | 13 kts | 91° |
| 2026-05-03 23:22 | 26.06767 | -80.14641 | 16 ft | 13 kts | 91° |
| 2026-05-03 23:23 | 26.06774 | -80.14565 | 16 ft | 10 kts | 70° |
| 2026-05-03 23:23 | 26.06813 | -80.14518 | 17 ft | 5 kts | 15° |
| 2026-05-03 23:23 | 26.06852 | -80.14517 | 17 ft | 6 kts | 1° |
| 2026-05-03 23:23 | 26.06888 | -80.14517 | 17 ft | 2 kts | 0° |
| 2026-05-03 23:24 | 26.06889 | -80.14516 | 17 ft | 0 kts | 0° |